createdAt,value
2022-09-28T00:01:05.252Z,100.00
2022-09-28T00:04:46.270Z,100.00
2022-09-28T00:08:34.122Z,100.00
2022-09-28T00:12:22.322Z,100.00
2022-09-28T00:15:49.452Z,100.00
2022-09-28T00:19:39.849Z,100.00
2022-09-28T00:23:12.686Z,100.00
2022-09-28T00:27:02.108Z,100.00
2022-09-28T00:30:49.924Z,100.00
2022-09-28T00:34:37.580Z,100.00
2022-09-28T00:38:04.912Z,100.00
2022-09-28T00:41:52.512Z,100.00
2022-09-28T00:45:40.372Z,100.00
2022-09-28T00:49:19.072Z,100.00
2022-09-28T00:53:06.855Z,100.00
2022-09-28T00:56:39.224Z,100.00
2022-09-28T01:00:27.238Z,100.00
2022-09-28T01:04:14.362Z,100.00
2022-09-28T01:08:03.563Z,100.00
2022-09-28T01:11:50.417Z,100.00
2022-09-28T01:15:38.109Z,100.00
2022-09-28T01:19:31.677Z,100.00
2022-09-28T01:23:35.264Z,100.00
2022-09-28T01:27:08.220Z,100.00
2022-09-28T01:30:56.005Z,100.00
2022-09-28T01:33:54.453Z,100.00
2022-09-28T01:37:44.484Z,100.00
2022-09-28T01:41:18.199Z,100.00
2022-09-28T01:44:53.039Z,100.00
2022-09-28T01:48:14.458Z,100.00
2022-09-28T01:51:22.717Z,100.00
2022-09-28T01:55:13.493Z,100.00
2022-09-28T01:59:03.081Z,100.00
2022-09-28T02:02:55.914Z,100.00
2022-09-28T02:06:23.489Z,100.00
2022-09-28T02:10:13.251Z,100.00
2022-09-28T02:14:15.725Z,100.00
2022-09-28T02:18:03.892Z,100.00
2022-09-28T02:22:03.476Z,100.00
2022-09-28T02:25:54.365Z,100.00
2022-09-28T02:28:49.223Z,100.00
2022-09-28T02:31:16.344Z,100.00
2022-09-28T02:33:50.310Z,100.00
2022-09-28T02:36:29.435Z,100.00
2022-09-28T02:39:02.064Z,100.00
2022-09-28T02:42:33.421Z,100.00
2022-09-28T02:46:30.757Z,100.00
2022-09-28T02:50:22.969Z,100.00
2022-09-28T02:54:13.412Z,100.00
2022-09-28T02:57:59.969Z,100.00
2022-09-28T03:01:22.594Z,100.00
2022-09-28T03:04:15.056Z,100.00
2022-09-28T03:07:07.301Z,100.00
2022-09-28T03:09:43.856Z,100.00
2022-09-28T03:12:16.199Z,100.00
2022-09-28T03:14:44.547Z,100.00
2022-09-28T03:17:11.516Z,100.00
2022-09-28T03:19:38.867Z,100.00
2022-09-28T03:22:11.457Z,100.00
2022-09-28T03:24:38.868Z,100.00
2022-09-28T03:27:07.697Z,100.00
2022-09-28T03:29:35.336Z,100.00
2022-09-28T03:32:05.845Z,100.00
2022-09-28T03:34:32.885Z,100.00
2022-09-28T03:36:59.997Z,100.00
2022-09-28T03:39:26.983Z,100.00
2022-09-28T03:41:54.027Z,100.00
2022-09-28T03:44:21.295Z,100.00
2022-09-28T03:46:50.664Z,100.00
2022-09-28T03:49:17.717Z,100.00
2022-09-28T03:51:47.226Z,100.00
2022-09-28T03:54:17.076Z,100.00
2022-09-28T03:56:44.299Z,100.00
2022-09-28T03:59:15.128Z,100.00
2022-09-28T04:01:44.868Z,100.00
2022-09-28T04:04:15.371Z,100.00
2022-09-28T04:06:42.352Z,100.00
2022-09-28T04:09:10.284Z,100.00
2022-09-28T04:12:02.325Z,100.00
2022-09-28T04:14:30.229Z,100.00
2022-09-28T04:16:57.162Z,100.00
2022-09-28T04:19:26.415Z,100.00
2022-09-28T04:22:12.119Z,100.00
2022-09-28T04:24:43.152Z,100.00
2022-09-28T04:27:28.327Z,100.00
2022-09-28T04:29:55.638Z,100.00
2022-09-28T04:32:23.203Z,100.00
2022-09-28T04:35:14.248Z,100.00
2022-09-28T04:51:04.309Z,100.00
2022-09-28T04:53:51.412Z,100.00
2022-09-28T04:56:50.318Z,100.00
2022-09-28T04:59:23.661Z,100.00
2022-09-28T05:02:11.470Z,100.00
2022-09-28T05:05:19.701Z,100.00
2022-09-28T05:08:06.136Z,100.00
2022-09-28T05:10:36.034Z,100.00
2022-09-28T05:13:13.253Z,99.95
2022-09-28T05:15:42.389Z,99.93
2022-09-28T05:18:22.084Z,99.83
2022-09-28T05:21:13.256Z,99.95
2022-09-28T05:23:45.699Z,99.26
2022-09-28T05:26:13.321Z,99.28
2022-09-28T05:29:07.538Z,98.96
2022-09-28T05:35:23.509Z,98.37
2022-09-28T05:45:54.262Z,96.99
2022-09-28T05:48:59.853Z,96.05
2022-09-28T05:55:28.767Z,95.15
2022-09-28T05:57:59.813Z,94.59
2022-09-28T06:09:55.278Z,92.24
2022-09-28T06:55:21.476Z,60.58
2022-09-28T06:58:54.173Z,55.65
2022-09-28T07:01:22.002Z,62.06
2022-09-28T07:04:21.141Z,62.66
2022-09-28T07:50:38.232Z,41.76
2022-09-28T07:54:14.521Z,42.12
2022-09-28T07:57:07.905Z,41.25
2022-09-28T08:00:28.916Z,40.60
2022-09-28T08:03:02.131Z,40.86
2022-09-28T08:05:51.811Z,42.35
2022-09-28T08:08:30.703Z,41.66
2022-09-28T08:11:23.438Z,39.60
2022-09-28T08:14:37.424Z,38.56
2022-09-28T08:18:23.701Z,40.10
2022-09-28T08:21:12.164Z,39.31
2022-09-28T08:24:02.561Z,37.86
2022-09-28T08:26:32.864Z,39.53
2022-09-28T08:29:33.432Z,36.53
2022-09-28T08:32:26.119Z,37.22
2022-09-28T08:36:20.021Z,36.39
2022-09-28T08:39:17.893Z,35.80
2022-09-28T08:42:45.061Z,35.42
2022-09-28T08:47:15.875Z,34.89
2022-09-28T08:50:37.859Z,33.98
2022-09-28T08:53:35.353Z,35.10
2022-09-28T08:57:09.893Z,33.80
2022-09-28T08:59:56.794Z,32.57
2022-09-28T09:06:45.600Z,32.30
2022-09-28T09:10:19.711Z,31.65
2022-09-28T09:13:41.298Z,31.47
2022-09-28T09:16:40.437Z,31.07
2022-09-28T09:19:46.707Z,30.68
2022-09-28T09:23:24.967Z,28.89
2022-09-28T09:30:17.493Z,28.62
2022-09-28T09:33:24.922Z,28.92
2022-09-28T10:30:44.448Z,27.68
2022-09-28T10:33:33.869Z,28.65
2022-09-28T10:36:07.196Z,28.80
2022-09-28T10:38:35.649Z,28.81
2022-09-28T10:41:16.723Z,28.26
2022-09-28T10:44:08.372Z,28.01
2022-09-28T10:46:42.954Z,28.32
2022-09-28T10:49:18.770Z,27.38
2022-09-28T10:51:58.557Z,27.47
2022-09-28T10:54:53.763Z,27.78
2022-09-28T10:57:37.068Z,27.47
2022-09-28T11:00:32.876Z,26.97
2022-09-28T11:03:26.118Z,27.07
2022-09-28T11:06:03.055Z,27.08
2022-09-28T11:08:52.180Z,27.26
2022-09-28T11:11:20.676Z,27.83
2022-09-28T11:14:04.016Z,28.49
2022-09-28T11:16:36.732Z,27.88
2022-09-28T11:19:20.991Z,26.99
2022-09-28T11:21:49.566Z,28.06
2022-09-28T11:24:20.568Z,27.55
2022-09-28T11:26:56.737Z,27.99
2022-09-28T11:29:45.861Z,28.21
2022-09-28T11:32:30.934Z,28.29
2022-09-28T11:35:32.322Z,28.14
2022-09-28T11:38:28.784Z,28.69
2022-09-28T11:41:58.884Z,29.17
2022-09-28T11:44:38.645Z,28.70
2022-09-28T11:47:55.430Z,28.92
2022-09-28T11:50:50.774Z,29.30
2022-09-28T11:53:41.928Z,29.02
2022-09-28T11:56:20.005Z,28.84
2022-09-28T11:58:54.052Z,29.31
2022-09-28T12:01:44.290Z,29.81
2022-09-28T12:04:53.030Z,30.88
2022-09-28T12:08:04.008Z,31.12
2022-09-28T12:11:15.853Z,31.69
2022-09-28T12:14:07.165Z,32.21
2022-09-28T12:17:07.738Z,32.41
2022-09-28T12:19:49.097Z,32.73
2022-09-28T12:22:33.276Z,33.04
2022-09-28T12:25:04.247Z,33.43
2022-09-28T12:28:07.292Z,33.43
2022-09-28T12:30:40.997Z,33.54
2022-09-28T12:33:16.101Z,33.88
2022-09-28T12:36:02.677Z,34.10
2022-09-28T12:39:15.096Z,33.96
2022-09-28T12:42:18.372Z,34.17
2022-09-28T12:45:00.397Z,34.25
2022-09-28T12:47:40.946Z,34.75
2022-09-28T12:50:56.074Z,35.04
2022-09-28T12:53:44.143Z,35.95
2022-09-28T12:59:53.188Z,36.01
2022-09-28T13:02:59.959Z,36.57
2022-09-28T13:05:58.096Z,37.15
2022-09-28T13:08:39.243Z,37.80
2022-09-28T13:11:35.386Z,37.88
2022-09-28T13:14:29.451Z,38.42
2022-09-28T13:17:00.908Z,38.00
2022-09-28T13:19:55.130Z,37.71
2022-09-28T13:22:44.135Z,37.97
2022-09-28T13:25:19.221Z,37.80
2022-09-28T13:28:03.468Z,38.10
2022-09-28T13:30:35.840Z,38.42
2022-09-28T13:33:08.857Z,38.49
2022-09-28T13:35:43.595Z,39.08
2022-09-28T13:38:16.446Z,39.47
2022-09-28T13:41:06.342Z,39.63
2022-09-28T13:44:13.898Z,40.24
2022-09-28T13:47:00.405Z,40.16
2022-09-28T13:49:45.728Z,39.86
2022-09-28T13:52:48.204Z,40.10
2022-09-28T13:55:33.122Z,40.54
2022-09-28T13:58:05.967Z,40.64
2022-09-28T14:00:57.896Z,41.21
2022-09-28T14:03:37.139Z,40.62
2022-09-28T14:06:25.694Z,40.33
2022-09-28T14:09:29.173Z,40.63
2022-09-28T14:12:24.173Z,40.65
2022-09-28T14:14:52.950Z,41.26
2022-09-28T14:17:20.952Z,41.25
2022-09-28T14:20:07.867Z,41.86
2022-09-28T14:23:00.945Z,42.31
2022-09-28T14:26:04.180Z,42.50
2022-09-28T14:41:17.652Z,43.79
2022-09-28T14:43:51.013Z,43.97
2022-09-28T14:50:38.073Z,44.39
2022-09-28T14:53:12.437Z,45.02
2022-09-28T15:04:28.218Z,46.69
2022-09-28T15:12:06.172Z,48.05
2022-09-28T15:18:54.790Z,48.75
2022-09-28T15:22:03.509Z,49.33
2022-09-28T15:28:19.441Z,50.92
2022-09-28T15:30:48.436Z,50.84
2022-09-28T15:33:50.323Z,50.96
2022-09-28T15:36:29.387Z,51.20
2022-09-28T15:39:23.611Z,52.01
2022-09-28T15:41:52.904Z,52.11
2022-09-28T16:04:05.337Z,53.34
2022-09-28T16:06:38.769Z,54.21
2022-09-28T16:09:34.578Z,54.49
2022-09-28T16:15:39.625Z,54.90
2022-09-28T16:18:24.300Z,55.23
2022-09-28T17:06:16.972Z,66.19
2022-09-28T17:13:33.880Z,69.35
2022-09-28T17:17:02.686Z,69.60
2022-09-28T17:21:04.522Z,69.61
2022-09-28T17:42:33.658Z,73.33
2022-09-28T17:45:05.817Z,72.95
2022-09-28T17:54:34.719Z,77.87
2022-09-28T17:57:42.312Z,75.17
2022-09-28T18:13:17.360Z,76.25
2022-09-28T18:19:45.440Z,74.26
2022-09-28T18:37:17.014Z,74.11
2022-09-28T18:40:58.884Z,76.18
2022-09-28T18:49:26.586Z,76.80
2022-09-28T18:52:19.109Z,75.82
2022-09-28T18:54:51.756Z,74.63
2022-09-28T18:57:55.898Z,75.76
2022-09-28T19:01:28.294Z,80.37
2022-09-28T19:04:27.924Z,80.18
2022-09-28T19:07:22.065Z,78.32
2022-09-28T19:09:50.961Z,77.91
2022-09-28T19:12:57.565Z,78.32
2022-09-28T19:28:01.576Z,77.40
2022-09-28T19:30:29.960Z,78.22
2022-09-28T19:32:58.262Z,81.42
2022-09-28T19:35:26.480Z,79.74
2022-09-28T19:37:55.948Z,79.74
2022-09-28T19:40:26.735Z,78.84
2022-09-28T19:42:55.295Z,79.69
2022-09-28T19:45:23.791Z,80.89
2022-09-28T19:47:57.297Z,80.45
2022-09-28T19:50:28.269Z,81.08
2022-09-28T19:53:01.865Z,81.94
2022-09-28T19:55:35.767Z,81.27
2022-09-28T19:58:04.242Z,81.87
2022-09-28T20:00:33.855Z,81.86
2022-09-28T20:03:04.084Z,82.13
2022-09-28T20:05:32.545Z,81.52
2022-09-28T20:12:46.619Z,81.73
2022-09-28T20:15:56.938Z,82.57
2022-09-28T20:18:45.611Z,83.59
2022-09-28T20:21:17.931Z,81.34
2022-09-28T20:23:48.303Z,80.50
2022-09-28T20:26:18.094Z,80.51
2022-09-28T20:28:46.996Z,81.34
2022-09-28T20:31:22.979Z,81.35
2022-09-28T20:33:53.524Z,81.03
2022-09-28T20:36:25.574Z,81.82
2022-09-28T20:38:55.041Z,82.45
2022-09-28T20:41:33.091Z,82.06
2022-09-28T20:44:30.705Z,82.36
2022-09-28T20:47:59.848Z,83.26
2022-09-28T20:50:35.250Z,83.87
2022-09-28T20:53:29.509Z,82.23
2022-09-28T20:56:00.310Z,82.85
2022-09-28T20:58:50.247Z,81.42
2022-09-28T21:01:45.331Z,81.25
2022-09-28T21:04:13.788Z,81.29
2022-09-28T21:06:44.486Z,82.15
2022-09-28T21:09:13.187Z,83.39
2022-09-28T21:11:44.625Z,84.47
2022-09-28T21:14:15.606Z,82.70
2022-09-28T21:17:05.471Z,82.62
2022-09-28T21:19:38.936Z,82.63
2022-09-28T21:22:08.843Z,83.14
2022-09-28T21:25:33.089Z,83.39
2022-09-28T21:29:30.525Z,82.74
2022-09-28T21:33:44.870Z,84.05
2022-09-28T21:36:54.635Z,86.30
2022-09-28T21:40:22.296Z,85.14
2022-09-28T21:43:11.301Z,85.59
2022-09-28T21:45:55.288Z,87.10
2022-09-28T21:48:37.733Z,87.53
2022-09-28T21:51:20.217Z,85.24
2022-09-28T21:54:03.946Z,84.26
2022-09-28T21:56:47.903Z,84.74
2022-09-28T21:59:31.347Z,84.75
2022-09-28T22:02:06.819Z,84.43
2022-09-28T22:04:34.980Z,84.27
2022-09-28T22:07:06.033Z,83.94
2022-09-28T22:09:36.040Z,85.95
2022-09-28T22:12:24.420Z,85.43
2022-09-28T22:14:52.480Z,87.09
2022-09-28T22:17:40.660Z,88.18
2022-09-28T22:20:09.438Z,88.12
2022-09-28T22:22:38.574Z,88.81
2022-09-28T22:25:06.891Z,86.52
2022-09-28T22:27:35.022Z,85.26
2022-09-28T22:30:06.640Z,86.80
2022-09-28T22:32:35.275Z,86.86
2022-09-28T22:35:05.003Z,85.77
2022-09-28T22:37:33.697Z,85.38
2022-09-28T22:40:02.102Z,86.23
2022-09-28T22:42:30.179Z,86.05
2022-09-28T22:44:58.253Z,86.80
2022-09-28T22:47:26.446Z,86.41
2022-09-28T22:49:54.672Z,87.22
2022-09-28T22:52:22.953Z,87.09
2022-09-28T22:54:54.440Z,89.27
2022-09-28T22:57:24.689Z,89.50
2022-09-28T22:59:52.760Z,88.38
2022-09-28T23:02:23.883Z,86.91
2022-09-28T23:04:52.051Z,87.88
2022-09-28T23:07:20.152Z,87.60
2022-09-28T23:09:48.290Z,87.48
2022-09-28T23:12:16.431Z,89.18
2022-09-28T23:14:44.669Z,87.86
2022-09-28T23:17:12.831Z,87.76
2022-09-28T23:19:41.148Z,88.00
2022-09-28T23:22:10.645Z,87.13
2022-09-28T23:24:38.762Z,86.70
2022-09-28T23:27:08.018Z,86.90
2022-09-28T23:29:36.502Z,87.23
2022-09-28T23:32:04.593Z,88.13
2022-09-28T23:34:32.729Z,87.94
2022-09-28T23:37:00.749Z,89.37
2022-09-28T23:39:28.774Z,88.52
2022-09-28T23:41:59.133Z,87.22
2022-09-28T23:44:31.786Z,87.39
2022-09-28T23:47:00.327Z,88.31
2022-09-28T23:49:29.791Z,88.30
2022-09-28T23:51:57.794Z,88.24
2022-09-28T23:54:25.888Z,87.81
2022-09-28T23:56:53.923Z,88.67
2022-09-28T23:59:21.828Z,88.48
